Time;durP1;ratioP1;P1;durP2;ratioP2;P2;SDS_P1;SDS_P2;PMS_P1;PMS_P2;Temp;Humidity;BMP_temperature;BMP_pressure;BME280_temperature;BME280_humidity;BME280_pressure;Samples;Min_cycle;Max_cycle;Signal;HPM_P1;HPM_P2
2023/03/11 00:00:15;;;;;;;30.98;7.95;;;13.60;96.70;;;;;;5082926;28;20109;-71
2023/03/11 00:02:44;;;;;;;31.08;7.35;;;13.60;96.70;;;;;;5071598;28;20050;-71
2023/03/11 00:05:15;;;;;;;31.30;6.93;;;13.60;96.70;;;;;;5093419;28;20036;-71
2023/03/11 00:07:43;;;;;;;34.38;7.88;;;13.60;96.70;;;;;;5078106;28;20462;-72
2023/03/11 00:10:14;;;;;;;30.15;7.07;;;13.70;96.70;;;;;;5098115;28;20093;-72
2023/03/11 00:12:43;;;;;;;30.10;5.65;;;13.70;96.70;;;;;;5069779;28;20040;-71
2023/03/11 00:15:11;;;;;;;32.47;6.47;;;13.80;96.70;;;;;;5091009;28;20040;-72
2023/03/11 00:17:39;;;;;;;30.27;6.63;;;13.80;96.70;;;;;;5064246;28;20047;-71
2023/03/11 00:20:16;;;;;;;29.70;6.93;;;13.80;96.70;;;;;;5092320;28;20064;-71
2023/03/11 00:22:45;;;;;;;35.90;7.20;;;13.80;96.70;;;;;;5068598;28;20705;-71
2023/03/11 00:25:13;;;;;;;34.10;7.75;;;13.90;96.70;;;;;;5064892;28;20054;-72
2023/03/11 00:27:42;;;;;;;32.72;6.97;;;13.90;96.70;;;;;;5085695;28;20052;-71
2023/03/11 00:30:12;;;;;;;31.23;7.72;;;13.90;96.70;;;;;;5058249;28;20042;-72
2023/03/11 00:32:40;;;;;;;38.17;10.20;;;13.90;96.70;;;;;;5074846;28;20138;-71
2023/03/11 00:35:22;;;;;;;36.67;9.75;;;13.80;96.70;;;;;;5091279;28;20043;-72
2023/03/11 00:37:54;;;;;;;39.90;10.02;;;13.80;96.70;;;;;;5089672;28;20144;-71
2023/03/11 00:40:24;;;;;;;33.08;8.75;;;13.80;96.70;;;;;;5102198;28;20039;-71
2023/03/11 00:42:52;;;;;;;41.42;11.15;;;13.80;96.70;;;;;;5063602;28;20047;-71
2023/03/11 00:45:20;;;;;;;35.97;9.98;;;13.80;96.70;;;;;;5062648;28;20047;-71
2023/03/11 00:47:49;;;;;;;37.72;9.90;;;13.80;96.70;;;;;;5083339;28;20055;-72
2023/03/11 00:50:20;;;;;;;27.63;6.53;;;13.80;96.70;;;;;;5065151;28;20044;-71
2023/03/11 00:52:49;;;;;;;28.02;5.72;;;13.90;96.70;;;;;;5064264;28;20078;-71
2023/03/11 00:55:19;;;;;;;29.50;6.45;;;13.90;96.70;;;;;;5080531;28;20039;-71
2023/03/11 00:57:50;;;;;;;28.27;7.30;;;13.90;96.70;;;;;;5074567;28;20082;-71
2023/03/11 01:00:22;;;;;;;30.70;5.68;;;13.90;96.70;;;;;;5066153;28;20048;-71
2023/03/11 01:02:50;;;;;;;27.05;6.68;;;13.90;96.70;;;;;;5064494;28;20046;-71
2023/03/11 01:05:21;;;;;;;27.13;5.03;;;13.90;96.70;;;;;;5064483;28;20379;-71
2023/03/11 01:07:49;;;;;;;29.50;6.15;;;13.90;96.70;;;;;;5057302;28;20045;-71
2023/03/11 01:10:18;;;;;;;33.00;6.40;;;14.00;96.70;;;;;;5066102;28;20615;-72
2023/03/11 01:12:46;;;;;;;24.23;4.53;;;14.00;96.70;;;;;;5068910;28;20055;-72
2023/03/11 01:15:18;;;;;;;24.15;4.75;;;14.00;96.70;;;;;;5062560;28;20135;-72
2023/03/11 01:17:46;;;;;;;23.65;5.18;;;14.00;96.70;;;;;;5064331;28;20850;-71
2023/03/11 01:20:14;;;;;;;28.65;5.32;;;14.00;96.70;;;;;;5063109;28;20147;-71
2023/03/11 01:22:45;;;;;;;26.88;4.97;;;14.00;96.70;;;;;;5075060;28;20035;-72
2023/03/11 01:25:15;;;;;;;23.15;5.10;;;14.00;96.70;;;;;;5040979;28;20231;-71
2023/03/11 01:27:44;;;;;;;27.70;5.15;;;14.00;96.70;;;;;;5060897;28;20062;-72
2023/03/11 01:30:15;;;;;;;29.10;6.47;;;14.00;96.70;;;;;;5065951;28;20047;-72
2023/03/11 01:32:43;;;;;;;27.92;5.15;;;14.00;96.70;;;;;;5069448;28;20055;-72
2023/03/11 01:35:14;;;;;;;18.90;4.82;;;14.00;96.70;;;;;;5070749;28;20040;-72
2023/03/11 01:37:42;;;;;;;24.02;5.25;;;14.00;96.70;;;;;;5096961;28;20548;-72
2023/03/11 01:40:16;;;;;;;28.08;5.47;;;13.90;96.70;;;;;;5067583;28;20048;-72
2023/03/11 01:42:44;;;;;;;21.00;5.22;;;13.90;96.70;;;;;;5096013;28;20036;-72
2023/03/11 01:45:39;;;;;;;26.65;6.47;;;13.90;96.70;;;;;;5062177;28;20685;-73
2023/03/11 01:48:09;;;;;;;29.63;6.10;;;13.90;96.70;;;;;;5064576;28;20040;-72
2023/03/11 01:50:42;;;;;;;26.02;5.60;;;13.80;96.70;;;;;;5064268;28;20109;-73
2023/03/11 01:53:12;;;;;;;28.70;5.47;;;13.80;96.70;;;;;;5083079;28;20523;-72
2023/03/11 01:55:43;;;;;;;27.02;5.38;;;13.70;96.70;;;;;;5057840;28;20044;-72
2023/03/11 01:58:17;;;;;;;31.17;6.60;;;13.70;96.70;;;;;;5063228;28;20047;-72
2023/03/11 02:00:46;;;;;;;31.50;6.05;;;13.70;96.70;;;;;;5063174;28;20052;-73
2023/03/11 02:03:20;;;;;;;22.90;5.65;;;13.70;96.70;;;;;;5064844;28;20125;-72
2023/03/11 02:05:50;;;;;;;25.27;6.03;;;13.60;96.70;;;;;;5070856;28;20589;-72
2023/03/11 02:08:18;;;;;;;23.02;4.57;;;13.60;96.70;;;;;;5058218;28;20046;-72
2023/03/11 02:10:51;;;;;;;29.70;5.38;;;13.60;96.70;;;;;;5093230;28;20050;-72
2023/03/11 02:13:19;;;;;;;25.13;4.50;;;13.70;96.70;;;;;;5066805;28;20048;-72
2023/03/11 02:15:47;;;;;;;20.70;4.72;;;13.70;96.70;;;;;;5074127;28;20395;-72
2023/03/11 02:18:19;;;;;;;27.38;5.22;;;13.70;96.70;;;;;;5063687;28;20048;-72
2023/03/11 02:20:53;;;;;;;19.23;4.75;;;13.70;96.70;;;;;;5066701;28;20048;-72
2023/03/11 02:23:26;;;;;;;27.98;6.35;;;13.60;96.70;;;;;;5067235;28;20060;-72
2023/03/11 02:26:03;;;;;;;21.23;5.15;;;13.60;96.70;;;;;;5068238;28;20079;-72
2023/03/11 02:28:34;;;;;;;21.70;4.93;;;13.60;96.70;;;;;;5074205;28;20054;-72
2023/03/11 02:31:03;;;;;;;21.05;4.22;;;13.60;96.70;;;;;;5062274;28;20897;-72
2023/03/11 02:33:33;;;;;;;26.80;5.60;;;13.60;96.70;;;;;;5062761;28;20055;-72
2023/03/11 02:36:01;;;;;;;24.92;5.63;;;13.60;96.70;;;;;;5067325;28;20576;-72
2023/03/11 02:38:30;;;;;;;25.10;5.10;;;13.60;96.70;;;;;;5060090;28;20063;-71
2023/03/11 02:41:00;;;;;;;20.52;5.10;;;13.60;96.70;;;;;;5065059;28;20040;-72
2023/03/11 02:43:36;;;;;;;21.52;4.47;;;13.50;96.70;;;;;;5076900;28;20650;-72
2023/03/11 02:46:06;;;;;;;22.30;5.15;;;13.50;96.70;;;;;;5099610;28;20149;-72
2023/03/11 02:48:35;;;;;;;22.48;5.40;;;13.50;96.70;;;;;;5066662;28;20807;-71
2023/03/11 02:51:03;;;;;;;25.48;5.45;;;13.60;96.70;;;;;;5060921;28;20497;-71
2023/03/11 02:53:36;;;;;;;26.08;5.10;;;13.60;96.70;;;;;;5067756;28;20045;-72
2023/03/11 02:56:05;;;;;;;25.77;5.22;;;13.50;96.70;;;;;;5063775;28;20048;-71
2023/03/11 02:58:35;;;;;;;26.00;5.10;;;13.50;96.70;;;;;;5069234;28;20074;-72
2023/03/11 03:01:04;;;;;;;25.40;4.70;;;13.50;96.70;;;;;;5066703;28;20881;-71
2023/03/11 03:03:32;;;;;;;22.27;4.88;;;13.50;96.70;;;;;;5065831;28;20813;-71
2023/03/11 03:06:00;;;;;;;24.88;5.47;;;13.50;96.70;;;;;;5066758;28;20758;-71
2023/03/11 03:08:28;;;;;;;22.88;3.88;;;13.50;96.70;;;;;;5066515;28;20082;-71
2023/03/11 03:10:58;;;;;;;27.52;5.50;;;13.50;96.70;;;;;;5064719;28;20532;-71
2023/03/11 03:13:26;;;;;;;19.00;4.35;;;13.40;96.70;;;;;;5064577;28;20052;-70
2023/03/11 03:15:57;;;;;;;25.35;5.30;;;13.40;96.70;;;;;;5055073;28;20049;-71
2023/03/11 03:18:26;;;;;;;32.42;6.68;;;13.40;96.70;;;;;;5065989;28;20048;-72
2023/03/11 03:20:54;;;;;;;27.10;5.55;;;13.40;96.70;;;;;;5073888;28;20532;-72
2023/03/11 03:23:22;;;;;;;19.50;4.60;;;13.40;96.70;;;;;;5065487;28;20123;-72
2023/03/11 03:25:51;;;;;;;20.58;4.28;;;13.50;96.70;;;;;;5067346;28;20041;-72
2023/03/11 03:28:19;;;;;;;27.08;4.70;;;13.50;96.70;;;;;;5071120;28;20032;-72
2023/03/11 03:30:47;;;;;;;18.33;3.97;;;13.60;96.70;;;;;;5051185;28;20112;-72
2023/03/11 03:33:16;;;;;;;24.30;4.75;;;13.60;96.70;;;;;;5075688;28;20044;-72
2023/03/11 03:35:45;;;;;;;19.02;4.22;;;13.60;96.70;;;;;;5069484;28;20079;-72
2023/03/11 03:38:20;;;;;;;27.27;4.30;;;13.60;96.70;;;;;;5053672;28;20048;-72
2023/03/11 03:40:51;;;;;;;22.85;4.30;;;13.60;96.70;;;;;;5065016;28;20102;-72
2023/03/11 03:43:20;;;;;;;23.83;5.07;;;13.60;96.70;;;;;;5078918;28;20059;-72
2023/03/11 03:45:55;;;;;;;20.38;4.13;;;13.60;96.70;;;;;;5072328;28;20129;-71
2023/03/11 03:48:28;;;;;;;27.48;4.97;;;13.60;96.70;;;;;;5050346;28;20045;-72
2023/03/11 03:51:01;;;;;;;20.38;5.10;;;13.60;96.70;;;;;;5057691;28;20041;-72
2023/03/11 03:53:29;;;;;;;22.67;4.13;;;13.70;96.70;;;;;;5057235;28;20048;-72
2023/03/11 03:56:00;;;;;;;17.50;3.83;;;13.70;96.70;;;;;;5058204;28;20398;-72
2023/03/11 03:58:30;;;;;;;21.30;4.35;;;13.70;96.70;;;;;;5064486;28;20053;-72
2023/03/11 04:00:59;;;;;;;24.95;4.63;;;13.70;96.70;;;;;;5057660;28;20047;-72
2023/03/11 04:03:29;;;;;;;22.50;3.67;;;13.60;96.70;;;;;;5061943;28;20502;-72
2023/03/11 04:06:10;;;;;;;21.20;4.68;;;13.60;96.70;;;;;;5061196;28;20094;-72
2023/03/11 04:08:39;;;;;;;21.10;3.80;;;13.70;96.70;;;;;;5064393;28;20055;-72
2023/03/11 04:11:08;;;;;;;24.10;4.25;;;13.60;96.70;;;;;;5065512;28;20044;-71
2023/03/11 04:13:36;;;;;;;22.13;3.67;;;13.70;96.70;;;;;;5050228;28;20052;-71
2023/03/11 04:16:06;;;;;;;22.92;4.90;;;13.70;96.70;;;;;;5060308;28;20043;-72
2023/03/11 04:18:37;;;;;;;19.42;3.92;;;13.80;96.70;;;;;;5054067;28;20099;-72
2023/03/11 04:21:06;;;;;;;27.58;3.83;;;13.80;96.70;;;;;;5029077;28;20548;-72
2023/03/11 04:23:35;;;;;;;18.90;4.07;;;13.70;96.70;;;;;;5045754;28;20053;-71
2023/03/11 04:26:03;;;;;;;23.15;4.75;;;13.70;96.70;;;;;;5043725;28;20041;-72
2023/03/11 04:28:32;;;;;;;17.73;3.78;;;13.70;96.70;;;;;;5048368;28;20045;-71
2023/03/11 04:30:59;;;;;;;20.30;4.65;;;13.70;96.70;;;;;;5045650;28;20048;-71
2023/03/11 04:33:30;;;;;;;23.02;4.10;;;13.70;96.70;;;;;;5051210;28;20043;-71
2023/03/11 04:36:03;;;;;;;23.30;4.55;;;13.70;96.70;;;;;;5049849;28;20045;-72
2023/03/11 04:38:32;;;;;;;17.35;3.35;;;13.80;96.70;;;;;;5048841;28;20049;-72
2023/03/11 04:41:00;;;;;;;22.55;4.32;;;13.80;96.70;;;;;;5052299;28;20044;-72
2023/03/11 04:43:29;;;;;;;28.67;4.65;;;13.70;96.70;;;;;;5048826;28;20047;-71
2023/03/11 04:45:57;;;;;;;17.98;3.95;;;13.70;96.70;;;;;;5051123;28;20110;-72
2023/03/11 04:48:26;;;;;;;29.33;5.20;;;13.70;96.70;;;;;;5029475;28;20063;-71
2023/03/11 04:50:54;;;;;;;21.95;4.28;;;13.60;96.70;;;;;;5053270;28;20140;-71
2023/03/11 04:53:25;;;;;;;21.85;4.60;;;13.60;96.70;;;;;;5054332;28;20052;-72
2023/03/11 04:55:53;;;;;;;28.60;4.10;;;13.60;96.70;;;;;;5046106;28;20056;-72
2023/03/11 04:58:22;;;;;;;18.85;3.80;;;13.60;96.70;;;;;;5049445;28;20094;-71
2023/03/11 05:00:51;;;;;;;22.65;3.95;;;13.60;96.70;;;;;;5051655;28;20051;-72
2023/03/11 05:03:20;;;;;;;24.55;4.93;;;13.60;96.70;;;;;;5048741;28;20036;-71
2023/03/11 05:05:48;;;;;;;22.98;4.57;;;13.70;96.70;;;;;;5044786;28;20111;-71
2023/03/11 05:08:19;;;;;;;23.13;4.03;;;13.70;96.70;;;;;;5035661;28;20454;-70
2023/03/11 05:10:49;;;;;;;23.25;5.40;;;13.70;96.70;;;;;;5049658;28;20098;-72
2023/03/11 05:13:18;;;;;;;20.95;4.60;;;13.60;96.70;;;;;;5030908;28;20128;-71
2023/03/11 05:15:46;;;;;;;20.58;4.13;;;13.60;96.70;;;;;;5051816;28;20122;-71
2023/03/11 05:18:15;;;;;;;22.13;3.95;;;13.70;96.70;;;;;;5051681;28;20041;-72
2023/03/11 05:20:44;;;;;;;30.65;5.78;;;13.70;96.70;;;;;;5045372;28;20053;-71
2023/03/11 05:23:13;;;;;;;24.15;4.70;;;13.70;96.70;;;;;;5049637;28;20052;-73
2023/03/11 05:25:42;;;;;;;22.27;4.00;;;13.70;96.70;;;;;;5048851;28;20044;-71
2023/03/11 05:28:11;;;;;;;25.65;5.18;;;13.70;96.70;;;;;;5051551;28;20040;-71
2023/03/11 05:30:45;;;;;;;26.80;4.07;;;13.60;96.70;;;;;;5050333;28;20144;-71
2023/03/11 05:33:13;;;;;;;23.83;4.50;;;13.60;96.70;;;;;;5048794;28;20045;-71
2023/03/11 05:35:42;;;;;;;20.85;4.30;;;13.60;96.70;;;;;;5048747;28;20081;-71
2023/03/11 05:38:10;;;;;;;19.98;4.15;;;13.60;96.70;;;;;;5042435;28;20059;-71
2023/03/11 05:40:38;;;;;;;16.70;4.05;;;13.60;96.70;;;;;;5049999;28;20036;-72
2023/03/11 05:43:05;;;;;;;22.48;4.60;;;13.60;96.70;;;;;;5049191;28;20128;-72
2023/03/11 05:45:39;;;;;;;19.50;5.15;;;13.60;96.70;;;;;;5047502;28;20095;-71
2023/03/11 05:48:07;;;;;;;17.08;3.97;;;13.60;96.70;;;;;;5033740;28;20579;-72
2023/03/11 05:50:37;;;;;;;23.83;4.38;;;13.60;96.70;;;;;;5050436;28;20044;-72
2023/03/11 05:53:06;;;;;;;25.65;4.63;;;13.60;96.70;;;;;;5051073;28;20055;-71
2023/03/11 05:55:44;;;;;;;20.05;3.83;;;13.60;96.70;;;;;;5049955;28;20045;-71
2023/03/11 05:58:12;;;;;;;29.10;5.05;;;13.60;96.70;;;;;;5036269;28;20462;-72
2023/03/11 06:00:42;;;;;;;24.20;4.78;;;13.70;96.70;;;;;;5048873;28;20758;-71
2023/03/11 06:03:10;;;;;;;21.63;4.35;;;13.70;96.70;;;;;;5038224;28;21137;-71
2023/03/11 06:05:44;;;;;;;19.75;3.55;;;13.70;96.70;;;;;;5037227;28;20048;-72
2023/03/11 06:08:18;;;;;;;19.65;4.07;;;13.80;96.70;;;;;;5041905;28;20534;-72
2023/03/11 06:10:46;;;;;;;22.67;4.20;;;13.80;96.70;;;;;;5053743;28;20099;-72
2023/03/11 06:13:17;;;;;;;25.45;4.82;;;13.80;96.70;;;;;;5054443;28;20136;-72
2023/03/11 06:15:50;;;;;;;19.50;4.07;;;13.80;96.70;;;;;;5044937;28;20567;-72
2023/03/11 06:18:20;;;;;;;20.38;4.38;;;13.80;96.70;;;;;;5056332;28;20048;-72
2023/03/11 06:20:48;;;;;;;24.10;4.32;;;13.90;96.70;;;;;;5050001;28;20185;-72
2023/03/11 06:23:16;;;;;;;16.85;4.00;;;13.90;96.70;;;;;;5045065;28;20041;-72
2023/03/11 06:25:45;;;;;;;20.23;3.80;;;13.90;96.70;;;;;;5047683;28;20643;-72
2023/03/11 06:28:13;;;;;;;23.00;4.57;;;13.90;96.70;;;;;;5058420;28;20053;-72
2023/03/11 06:30:43;;;;;;;25.00;5.13;;;13.90;96.70;;;;;;5063286;28;20448;-72
2023/03/11 06:33:16;;;;;;;20.95;4.53;;;14.00;96.70;;;;;;5060549;28;20055;-72
2023/03/11 06:35:44;;;;;;;29.30;4.93;;;14.00;96.70;;;;;;5056545;28;20041;-72
2023/03/11 06:38:12;;;;;;;24.88;4.45;;;14.10;96.70;;;;;;5051956;28;20094;-73
2023/03/11 06:40:40;;;;;;;23.75;4.70;;;14.10;96.70;;;;;;5065371;28;20082;-73
2023/03/11 06:43:09;;;;;;;23.33;4.55;;;14.20;96.70;;;;;;5070276;28;20475;-72
2023/03/11 06:45:39;;;;;;;22.95;5.25;;;14.20;96.70;;;;;;5063434;28;20055;-72
2023/03/11 06:48:08;;;;;;;26.75;4.18;;;14.20;96.70;;;;;;5054896;28;20044;-72
2023/03/11 06:50:38;;;;;;;24.23;4.78;;;14.20;96.70;;;;;;5058148;28;20037;-72
2023/03/11 06:53:06;;;;;;;27.75;4.93;;;14.30;96.70;;;;;;5073979;28;20044;-71
2023/03/11 06:55:35;;;;;;;25.63;4.82;;;14.30;96.70;;;;;;5070143;28;20050;-72
2023/03/11 06:58:04;;;;;;;30.67;5.88;;;14.40;96.70;;;;;;5058144;28;20599;-72
2023/03/11 07:00:32;;;;;;;27.55;5.43;;;14.40;96.70;;;;;;5062909;28;20047;-71
2023/03/11 07:03:02;;;;;;;22.90;5.22;;;14.40;96.70;;;;;;5072341;28;20139;-72
2023/03/11 07:05:30;;;;;;;23.20;6.28;;;14.40;96.70;;;;;;5056737;28;20033;-71
2023/03/11 07:08:05;;;;;;;27.45;5.25;;;14.40;96.70;;;;;;5051972;28;20044;-72
2023/03/11 07:10:34;;;;;;;19.88;4.35;;;14.50;96.70;;;;;;5055959;28;20072;-72
2023/03/11 07:13:02;;;;;;;26.90;4.65;;;14.50;96.70;;;;;;5063089;28;20036;-72
2023/03/11 07:15:30;;;;;;;23.88;4.95;;;14.50;96.70;;;;;;5063309;28;20052;-72
2023/03/11 07:17:58;;;;;;;26.48;5.13;;;14.50;96.70;;;;;;5064459;28;20105;-72
2023/03/11 07:20:26;;;;;;;26.40;5.30;;;14.60;96.70;;;;;;5070509;28;20048;-73
2023/03/11 07:22:54;;;;;;;27.85;5.30;;;14.60;96.70;;;;;;5058611;28;20044;-71
2023/03/11 07:25:23;;;;;;;26.70;5.03;;;14.60;96.70;;;;;;5087893;28;20039;-72
2023/03/11 07:27:52;;;;;;;26.10;5.20;;;14.70;96.70;;;;;;5069042;28;20060;-72
2023/03/11 07:30:20;;;;;;;22.50;4.75;;;14.70;96.70;;;;;;5075537;28;20180;-72
2023/03/11 07:32:47;;;;;;;24.38;5.72;;;14.80;96.70;;;;;;5077030;28;20139;-72
2023/03/11 07:35:15;;;;;;;30.25;5.68;;;14.80;96.70;;;;;;5104576;28;20058;-72
2023/03/11 07:37:44;;;;;;;26.17;6.20;;;14.90;96.70;;;;;;5103153;28;20042;-72
2023/03/11 07:40:12;;;;;;;23.92;6.15;;;14.90;96.70;;;;;;5097231;28;20214;-72
2023/03/11 07:42:41;;;;;;;26.48;5.93;;;15.00;96.70;;;;;;5066111;28;20048;-72
2023/03/11 07:45:10;;;;;;;24.05;5.68;;;15.00;96.70;;;;;;5066415;28;20051;-72
2023/03/11 07:47:38;;;;;;;29.02;6.70;;;15.10;96.70;;;;;;5067691;28;20135;-73
2023/03/11 07:50:07;;;;;;;21.35;5.05;;;15.20;96.70;;;;;;5071406;28;20094;-73
2023/03/11 07:52:35;;;;;;;27.23;5.40;;;15.20;96.70;;;;;;5070060;28;20044;-73
2023/03/11 07:55:04;;;;;;;20.83;4.85;;;15.20;96.70;;;;;;5100972;28;20047;-73
2023/03/11 07:57:32;;;;;;;23.23;4.85;;;15.20;96.70;;;;;;5101772;28;20047;-78
2023/03/11 08:00:01;;;;;;;29.55;5.28;;;15.20;96.70;;;;;;5059013;28;20725;-72
2023/03/11 08:02:38;;;;;;;25.10;5.25;;;15.20;96.70;;;;;;5096533;28;20423;-72
2023/03/11 08:05:07;;;;;;;31.35;5.43;;;15.20;96.70;;;;;;5065805;28;20047;-72
2023/03/11 08:07:34;;;;;;;21.90;5.50;;;15.10;96.70;;;;;;5092894;28;20063;-72
2023/03/11 08:10:03;;;;;;;26.33;5.30;;;15.10;96.70;;;;;;5073090;28;20102;-72
2023/03/11 08:12:31;;;;;;;27.73;5.22;;;15.00;96.70;;;;;;5075490;28;20098;-72
2023/03/11 08:14:59;;;;;;;31.05;5.68;;;15.10;96.70;;;;;;5099386;28;20624;-74
2023/03/11 08:17:30;;;;;;;26.55;5.35;;;15.10;96.70;;;;;;5070305;28;20128;-72
2023/03/11 08:19:58;;;;;;;26.55;5.63;;;15.20;96.70;;;;;;5092674;28;20044;-72
2023/03/11 08:22:27;;;;;;;29.30;7.00;;;15.30;96.70;;;;;;5064534;28;20382;-74
2023/03/11 08:24:55;;;;;;;21.67;5.75;;;15.30;96.70;;;;;;5066387;28;20058;-74
2023/03/11 08:27:23;;;;;;;22.67;5.00;;;15.30;96.70;;;;;;5097797;28;20044;-73
2023/03/11 08:29:51;;;;;;;26.20;5.20;;;15.30;96.70;;;;;;5092621;28;20047;-72
2023/03/11 08:32:19;;;;;;;24.65;6.40;;;15.40;96.70;;;;;;5063982;28;20039;-72
2023/03/11 08:34:50;;;;;;;30.75;5.35;;;15.40;96.70;;;;;;5055015;28;20142;-72
2023/03/11 08:37:18;;;;;;;18.95;5.03;;;15.40;96.70;;;;;;5054392;28;20139;-74
2023/03/11 08:39:46;;;;;;;24.55;5.20;;;15.40;96.70;;;;;;5031845;28;20054;-72
2023/03/11 08:42:14;;;;;;;23.02;5.47;;;15.40;96.70;;;;;;5059089;28;20047;-72
2023/03/11 08:44:42;;;;;;;26.65;5.90;;;15.30;96.70;;;;;;5054258;28;20710;-72
2023/03/11 08:47:11;;;;;;;29.60;5.95;;;15.30;96.70;;;;;;5063457;28;20707;-74
2023/03/11 08:49:40;;;;;;;31.73;5.15;;;15.30;96.70;;;;;;5065282;28;20093;-73
2023/03/11 08:52:09;;;;;;;25.17;5.45;;;15.30;96.70;;;;;;5057964;28;20050;-73
2023/03/11 08:54:37;;;;;;;25.50;5.40;;;15.30;96.70;;;;;;5101578;28;20058;-74
2023/03/11 08:57:05;;;;;;;21.48;5.03;;;15.30;96.70;;;;;;5063800;28;20067;-73
2023/03/11 08:59:35;;;;;;;23.80;5.50;;;15.30;96.70;;;;;;5046328;28;20326;-72
2023/03/11 09:02:03;;;;;;;22.02;5.68;;;15.20;96.70;;;;;;5099943;28;20364;-74
2023/03/11 09:04:31;;;;;;;21.10;5.68;;;15.20;96.70;;;;;;5083173;28;20047;-74
2023/03/11 09:06:59;;;;;;;23.90;6.88;;;15.20;96.70;;;;;;5092110;28;20046;-72
2023/03/11 09:09:29;;;;;;;22.88;6.55;;;15.20;96.70;;;;;;5086475;28;20043;-72
2023/03/11 09:11:57;;;;;;;22.08;5.45;;;15.20;96.70;;;;;;5102025;28;20506;-72
2023/03/11 09:14:25;;;;;;;24.70;5.82;;;15.20;96.70;;;;;;5061092;28;20051;-72
2023/03/11 09:16:53;;;;;;;22.17;5.90;;;15.20;96.70;;;;;;5059046;28;20682;-73
2023/03/11 09:19:21;;;;;;;18.30;6.55;;;15.20;96.70;;;;;;5054807;28;20055;-72
2023/03/11 09:21:49;;;;;;;21.95;5.47;;;15.20;96.70;;;;;;5066930;28;20059;-72
2023/03/11 09:24:17;;;;;;;23.60;6.60;;;15.20;96.70;;;;;;5063460;28;20044;-72
2023/03/11 09:26:46;;;;;;;20.15;5.63;;;15.20;96.70;;;;;;5078282;28;20405;-72
2023/03/11 09:29:15;;;;;;;27.40;6.03;;;15.20;96.70;;;;;;5056361;28;20041;-72
2023/03/11 09:31:42;;;;;;;20.48;5.80;;;15.20;96.70;;;;;;5057668;28;20111;-72
2023/03/11 09:34:11;;;;;;;25.70;7.40;;;15.20;96.70;;;;;;5058825;28;20036;-71
2023/03/11 09:36:43;;;;;;;24.83;6.45;;;15.20;96.70;;;;;;5084900;28;20040;-72
2023/03/11 09:39:11;;;;;;;31.55;14.80;;;15.20;96.70;;;;;;5048077;28;20044;-72
2023/03/11 09:41:46;;;;;;;24.85;7.93;;;15.20;96.70;;;;;;5100445;28;20035;-72
2023/03/11 09:44:31;;;;;;;22.55;6.75;;;15.20;96.70;;;;;;5058818;28;20047;-72
2023/03/11 09:47:18;;;;;;;23.75;6.85;;;15.20;96.70;;;;;;5063614;28;20052;-73
2023/03/11 09:50:05;;;;;;;23.80;6.18;;;15.30;96.70;;;;;;5063328;28;20630;-73
2023/03/11 09:52:42;;;;;;;24.20;6.30;;;15.40;96.70;;;;;;5057203;28;20134;-73
2023/03/11 09:55:30;;;;;;;22.40;8.07;;;15.40;96.70;;;;;;5090115;28;20048;-73
2023/03/11 09:58:03;;;;;;;24.60;7.75;;;15.50;96.70;;;;;;5086184;28;20118;-72
2023/03/11 10:00:33;;;;;;;24.00;6.22;;;15.70;96.70;;;;;;5075219;28;20385;-73
2023/03/11 10:03:02;;;;;;;24.45;5.95;;;15.80;96.70;;;;;;5075577;28;20047;-72
2023/03/11 10:05:32;;;;;;;18.60;5.00;;;15.90;96.70;;;;;;5058550;28;20097;-72
2023/03/11 10:08:10;;;;;;;17.90;5.55;;;15.90;96.70;;;;;;5076423;28;20181;-72
2023/03/11 10:10:44;;;;;;;26.73;7.40;;;15.90;96.70;;;;;;5076130;28;20050;-73
2023/03/11 10:13:17;;;;;;;20.85;5.43;;;15.90;96.70;;;;;;5079849;28;20505;-73
2023/03/11 10:16:04;;;;;;;22.00;4.95;;;16.00;96.70;;;;;;5050625;28;20053;-72
2023/03/11 10:18:57;;;;;;;18.25;5.15;;;15.90;96.70;;;;;;5054040;28;20043;-72
2023/03/11 10:21:36;;;;;;;19.02;4.80;;;16.10;96.70;;;;;;5046546;28;20511;-73
2023/03/11 10:24:16;;;;;;;19.80;5.32;;;16.10;96.70;;;;;;5056404;28;20044;-73
2023/03/11 10:26:48;;;;;;;17.30;5.38;;;16.10;96.70;;;;;;5076317;28;20414;-73
2023/03/11 10:29:22;;;;;;;17.73;5.90;;;16.10;96.70;;;;;;5075473;28;20686;-74
2023/03/11 10:31:58;;;;;;;21.23;5.95;;;16.00;96.70;;;;;;5075476;28;20117;-72
2023/03/11 10:34:32;;;;;;;22.63;5.20;;;16.00;96.70;;;;;;5068380;28;20513;-74
2023/03/11 10:37:05;;;;;;;23.25;6.05;;;16.10;96.70;;;;;;5074003;28;20046;-74
2023/03/11 10:39:34;;;;;;;29.83;7.32;;;16.10;96.70;;;;;;5076032;28;20074;-74
2023/03/11 10:42:04;;;;;;;24.10;6.35;;;16.20;96.70;;;;;;5051571;28;20040;-73
2023/03/11 10:44:34;;;;;;;18.42;5.53;;;16.20;96.70;;;;;;5069870;28;20545;-73
2023/03/11 10:47:17;;;;;;;20.95;5.53;;;16.30;96.70;;;;;;5057369;28;20059;-72
2023/03/11 10:49:54;;;;;;;22.52;5.95;;;16.30;96.70;;;;;;5082698;28;20040;-74
2023/03/11 10:52:22;;;;;;;21.50;5.15;;;16.30;96.70;;;;;;5067992;28;20122;-74
2023/03/11 10:54:59;;;;;;;18.73;5.57;;;16.30;96.70;;;;;;5059318;28;20409;-73
2023/03/11 10:57:32;;;;;;;23.50;5.93;;;16.30;96.70;;;;;;5056646;28;20044;-73
2023/03/11 11:00:08;;;;;;;19.77;5.63;;;16.40;96.70;;;;;;5064054;28;20044;-73
2023/03/11 11:02:47;;;;;;;81.80;60.10;;;16.50;96.70;;;;;;5063526;28;20055;-72
2023/03/11 11:05:27;;;;;;;21.52;7.10;;;16.60;96.70;;;;;;5081377;28;20047;-73
2023/03/11 11:08:04;;;;;;;17.50;5.20;;;16.60;96.70;;;;;;5058458;28;20032;-74
2023/03/11 11:10:33;;;;;;;22.65;5.97;;;16.60;96.70;;;;;;5056657;28;20066;-74
2023/03/11 11:13:15;;;;;;;18.27;5.22;;;16.60;96.70;;;;;;5057827;28;20537;-74
2023/03/11 11:15:53;;;;;;;20.20;5.15;;;16.60;96.70;;;;;;5059851;28;20135;-74
2023/03/11 11:18:25;;;;;;;19.85;5.18;;;16.60;96.70;;;;;;5074443;28;20051;-73
2023/03/11 11:20:59;;;;;;;21.02;5.03;;;16.70;96.70;;;;;;5081209;28;20052;-73
2023/03/11 11:23:33;;;;;;;20.20;4.68;;;16.60;96.70;;;;;;5081017;28;20051;-73
2023/03/11 11:26:03;;;;;;;19.80;5.57;;;16.60;96.70;;;;;;5069007;28;20079;-73
2023/03/11 11:28:32;;;;;;;16.73;4.38;;;16.60;96.70;;;;;;5088647;28;20157;-73
2023/03/11 11:31:25;;;;;;;20.92;4.75;;;16.70;96.70;;;;;;5083703;28;20822;-73
2023/03/11 11:33:55;;;;;;;18.65;5.03;;;16.70;96.70;;;;;;5091068;28;20580;-73
2023/03/11 11:36:28;;;;;;;15.45;4.88;;;16.80;96.70;;;;;;5067432;28;20052;-73
2023/03/11 11:38:57;;;;;;;21.75;5.28;;;16.90;96.70;;;;;;5063019;28;20100;-73
2023/03/11 11:41:27;;;;;;;20.73;4.65;;;16.90;96.70;;;;;;5076690;28;20048;-72
2023/03/11 11:43:58;;;;;;;21.27;4.85;;;16.80;96.70;;;;;;5090569;28;20548;-73
2023/03/11 11:46:33;;;;;;;21.52;5.03;;;16.90;96.70;;;;;;5099963;28;20039;-73
2023/03/11 11:49:16;;;;;;;22.45;4.93;;;17.00;96.70;;;;;;5104341;28;20040;-72
2023/03/11 11:51:49;;;;;;;23.80;4.90;;;17.00;96.70;;;;;;5085924;28;20088;-74
2023/03/11 11:54:24;;;;;;;16.90;4.53;;;17.10;96.70;;;;;;5097009;28;20044;-73
2023/03/11 11:56:53;;;;;;;20.55;4.30;;;17.30;96.70;;;;;;5098100;28;20120;-73
2023/03/11 11:59:23;;;;;;;18.30;4.72;;;17.40;96.70;;;;;;5062258;28;20429;-73
2023/03/11 12:02:03;;;;;;;18.05;4.90;;;17.50;96.70;;;;;;5094111;28;20071;-72
2023/03/11 12:04:44;;;;;;;17.88;5.15;;;17.60;96.70;;;;;;5068100;28;20497;-74
2023/03/11 12:07:35;;;;;;;18.00;5.57;;;17.70;96.70;;;;;;5090948;28;20051;-73
2023/03/11 12:10:17;;;;;;;21.48;5.75;;;17.70;96.70;;;;;;5096408;28;20131;-73
2023/03/11 12:13:32;;;;;;;23.25;6.18;;;17.70;96.70;;;;;;5095936;28;20045;-73
2023/03/11 12:16:05;;;;;;;20.48;5.30;;;17.60;96.70;;;;;;5061133;28;20521;-73
2023/03/11 12:18:38;;;;;;;43.92;23.08;;;17.60;96.70;;;;;;5056271;28;20050;-73
2023/03/11 12:21:22;;;;;;;31.50;7.30;;;17.60;96.70;;;;;;5078261;28;20048;-73
2023/03/11 12:24:03;;;;;;;21.05;5.55;;;17.60;96.70;;;;;;5052383;28;20048;-72
2023/03/11 12:26:36;;;;;;;24.55;5.72;;;17.70;96.70;;;;;;5059879;28;20052;-73
2023/03/11 12:29:11;;;;;;;25.50;5.93;;;17.70;96.70;;;;;;5039399;28;21410;-73
2023/03/11 12:31:43;;;;;;;20.70;5.93;;;17.70;96.70;;;;;;5078444;28;20093;-73
2023/03/11 12:34:13;;;;;;;24.75;5.47;;;17.70;96.70;;;;;;5052605;28;20502;-72
2023/03/11 12:36:45;;;;;;;23.13;5.70;;;17.60;96.70;;;;;;5055620;28;20468;-73
2023/03/11 12:39:27;;;;;;;23.27;6.10;;;17.60;96.70;;;;;;5074007;28;20040;-72
2023/03/11 12:42:37;;;;;;;23.58;5.80;;;17.60;96.70;;;;;;5075368;28;20079;-73
2023/03/11 12:45:34;;;;;;;21.13;4.82;;;17.60;96.70;;;;;;4977909;28;20115;-73
2023/03/11 12:48:31;;;;;;;21.73;5.32;;;17.60;96.70;;;;;;5076834;28;20048;-73
2023/03/11 12:51:00;;;;;;;24.27;5.20;;;17.60;96.70;;;;;;5059805;28;20524;-72
2023/03/11 12:53:45;;;;;;;18.73;5.25;;;17.80;96.70;;;;;;5058331;28;20524;-73
2023/03/11 12:56:34;;;;;;;24.30;5.57;;;17.80;96.70;;;;;;5053762;28;20061;-73